Flagler Beach, FL

5:56 PM EST on January 31, 2015 (GMT -0500)
fsection | Change Station
CLOSE
Current Station
Personal Weather Station
Location: Palm Coast, FL
Elevation: 20 ft
Nearby Weather Stations

Elev 20 ft 29.58 °N, 81.23 °W | Updated 10 seconds ago

Clear
Clear
56.4 °F
Feels Like 56.4 °F
N
0.0
Wind Variable Wind from NNW
Gusts 3.0 mph

Today
High -- | Low -- °F
--% Chance of Precip.
Yesterday
High -- | Low -- °F
Precip. -- in
7:14 AM 6:01 PM
Waxing Gibbous, 92% visible
Pressure 30.29 in
Visibility 10.0 miles
Clouds Few 3500 ft
Dew Point 49 °F
Humidity 76%
Rainfall 0.00 in
Snow Depth Not available.
UV 1 out of 12
Pollen 8.20 out of 12
Air Quality Not available.
Flu Activity Not available.
METAR KOMN 312150Z 04008KT 10SM FEW035 17/08 A3029

More Conditions Fewer Conditions

Pressure 30.29 in
Visibility 10.0 miles
Clouds Few 3500 ft
Dew Point 49 °F
Humidity 76%
Rainfall 0.00 in
Snow Depth Not available.
UV 1 out of 12
Pollen 8.20 out of 12
Air Quality Not available.
Flu Activity Not available.
METAR KOMN 312150Z 04008KT 10SM FEW035 17/08 A3029

More Conditions Fewer Conditions

10-Day Weather Forecast

Almanac

Astronomy

Jan. 31, 2015 Rise Set
Actual Time
Civil Twilight
Nautical Twilight
Astronomical Twilight
Moon
Length of Visible Light
Length of Day
Tomorrow will be .
, % of the Moon is Illuminated

Today's Extremes

State Highs State Lows

Community

WunderPhotos

Upload Photos

1,792,239 photos uploaded!

WunderBlogs® & News

Nearby

Air Quality

  Air Quality AQ Index Pollutant
Not available.

Snow Depth

Station Depth Elevation

Earthquake Activity

City Distance Mag. Time & Date
Minimum magnitude displayed is 2.5.

Coastal Water Temperatures

Place Temperature

Nearby Weather Stations